createdAt,value
2018-12-08T00:00:43.247Z,7.00
2018-12-08T00:02:46.606Z,7.10
2018-12-08T00:04:50.093Z,7.00
2018-12-08T00:06:53.578Z,7.00
2018-12-08T00:08:56.814Z,7.00
2018-12-08T00:11:00.360Z,7.00
2018-12-08T00:13:04.279Z,6.90
2018-12-08T00:15:08.962Z,7.00
2018-12-08T00:17:12.498Z,6.90
2018-12-08T00:19:16.531Z,6.90
2018-12-08T00:21:20.087Z,6.90
2018-12-08T00:23:23.583Z,6.90
2018-12-08T00:25:27.081Z,6.80
2018-12-08T00:27:30.677Z,6.70
2018-12-08T00:29:34.150Z,6.70
2018-12-08T00:31:45.295Z,6.60
2018-12-08T00:33:48.866Z,6.60
2018-12-08T00:35:52.384Z,6.60
2018-12-08T00:37:55.583Z,6.60
2018-12-08T00:39:59.419Z,6.60
2018-12-08T00:42:02.700Z,6.60
2018-12-08T00:44:06.670Z,6.60
2018-12-08T00:46:10.188Z,6.50
2018-12-08T00:48:13.682Z,6.50
2018-12-08T00:50:17.578Z,6.50
2018-12-08T00:52:22.378Z,6.40
2018-12-08T00:54:25.954Z,6.40
2018-12-08T00:56:30.489Z,6.40
2018-12-08T00:58:34.243Z,6.40
2018-12-08T01:00:37.774Z,6.30
2018-12-08T01:02:40.994Z,6.30
2018-12-08T01:04:44.202Z,6.40
2018-12-08T01:06:48.198Z,6.30
2018-12-08T01:08:52.507Z,6.30
2018-12-08T01:10:56.866Z,6.20
2018-12-08T01:13:00.367Z,6.20
2018-12-08T01:15:05.124Z,6.20
2018-12-08T01:17:09.035Z,6.20
2018-12-08T01:19:12.514Z,6.10
2018-12-08T01:21:16.182Z,6.20
2018-12-08T01:23:19.719Z,6.20
2018-12-08T01:25:23.764Z,6.20
2018-12-08T01:27:27.738Z,6.20
2018-12-08T01:29:31.202Z,6.20
2018-12-08T01:31:35.235Z,6.20
2018-12-08T01:33:39.059Z,6.20
2018-12-08T01:35:42.581Z,6.20
2018-12-08T01:37:45.811Z,6.20
2018-12-08T01:39:50.364Z,6.20
2018-12-08T01:41:53.901Z,6.20
2018-12-08T01:43:57.088Z,6.20
2018-12-08T01:46:00.716Z,6.20
2018-12-08T01:48:05.037Z,6.20
2018-12-08T01:50:08.935Z,6.30
2018-12-08T01:52:12.726Z,6.30
2018-12-08T01:54:16.305Z,6.30
2018-12-08T01:56:19.926Z,6.30
2018-12-08T01:58:23.558Z,6.30
2018-12-08T02:00:27.075Z,6.30
2018-12-08T02:02:30.565Z,6.30
2018-12-08T02:04:33.794Z,6.30
2018-12-08T02:06:37.413Z,6.30
2018-12-08T02:08:40.621Z,6.30
2018-12-08T02:10:44.417Z,6.30
2018-12-08T02:12:47.964Z,6.30
2018-12-08T02:14:51.804Z,6.30
2018-12-08T02:16:55.412Z,6.20
2018-12-08T02:18:58.886Z,6.20
2018-12-08T02:21:02.141Z,6.30
2018-12-08T02:23:06.486Z,6.30
2018-12-08T02:25:09.959Z,6.20
2018-12-08T02:27:13.290Z,6.20
2018-12-08T02:29:16.825Z,6.20
2018-12-08T02:31:20.326Z,6.20
2018-12-08T02:33:24.163Z,6.20
2018-12-08T02:35:27.391Z,6.20
2018-12-08T02:37:30.897Z,6.20
2018-12-08T02:39:34.451Z,6.20
2018-12-08T02:41:37.690Z,6.20
2018-12-08T02:43:41.602Z,6.20
2018-12-08T02:45:44.826Z,6.20
2018-12-08T02:47:48.380Z,6.20
2018-12-08T02:49:51.859Z,6.20
2018-12-08T02:51:58.946Z,6.20
2018-12-08T02:54:03.247Z,6.20
2018-12-08T02:56:07.176Z,6.10
2018-12-08T02:58:11.123Z,6.10
2018-12-08T03:00:15.000Z,6.10
2018-12-08T03:02:19.207Z,6.10
2018-12-08T03:04:22.757Z,6.10
2018-12-08T03:06:26.647Z,6.10
2018-12-08T03:08:30.132Z,6.20
2018-12-08T03:10:33.389Z,6.20
2018-12-08T03:12:36.599Z,6.20
2018-12-08T03:14:40.986Z,6.20
2018-12-08T03:16:45.343Z,6.10
2018-12-08T03:18:49.256Z,6.20
2018-12-08T03:20:52.837Z,6.30
2018-12-08T03:22:56.365Z,6.30
2018-12-08T03:24:59.879Z,6.20
2018-12-08T03:27:03.788Z,6.30
2018-12-08T03:29:07.833Z,6.30
2018-12-08T03:31:11.610Z,6.20
2018-12-08T03:33:15.080Z,6.20
2018-12-08T03:35:18.319Z,6.30
2018-12-08T03:37:22.218Z,6.30
2018-12-08T03:39:25.474Z,6.30
2018-12-08T03:41:29.724Z,6.20
2018-12-08T03:43:33.205Z,6.20
2018-12-08T03:45:36.898Z,6.20
2018-12-08T03:47:40.830Z,6.30
2018-12-08T03:49:44.314Z,6.30
2018-12-08T03:51:47.523Z,6.30
2018-12-08T03:53:51.314Z,6.30
2018-12-08T03:55:54.816Z,6.20
2018-12-08T03:57:58.443Z,6.30
2018-12-08T04:00:02.728Z,6.30
2018-12-08T04:02:07.300Z,6.20
2018-12-08T04:04:11.007Z,6.30
2018-12-08T04:06:15.065Z,6.20
2018-12-08T04:08:18.984Z,6.20
2018-12-08T04:10:23.182Z,6.20
2018-12-08T04:12:27.245Z,6.20
2018-12-08T04:14:31.415Z,6.20
2018-12-08T04:16:35.152Z,6.20
2018-12-08T04:18:38.801Z,6.20
2018-12-08T04:20:42.718Z,6.20
2018-12-08T04:22:46.255Z,6.10
2018-12-08T04:24:49.510Z,6.10
2018-12-08T04:26:53.376Z,6.20
2018-12-08T04:28:56.996Z,6.20
2018-12-08T04:31:00.491Z,6.20
2018-12-08T04:33:04.043Z,6.20
2018-12-08T04:35:07.555Z,6.20
2018-12-08T04:37:11.712Z,6.30
2018-12-08T04:39:15.330Z,6.30
2018-12-08T04:41:18.970Z,6.30
2018-12-08T04:43:22.875Z,6.30
2018-12-08T04:45:27.086Z,6.30
2018-12-08T04:47:31.015Z,6.30
2018-12-08T04:49:34.719Z,6.30
2018-12-08T04:51:38.675Z,6.30
2018-12-08T04:53:42.265Z,6.30
2018-12-08T04:55:45.794Z,6.30
2018-12-08T04:57:49.438Z,6.30
2018-12-08T04:59:53.206Z,6.20
2018-12-08T05:01:57.210Z,6.10
2018-12-08T05:04:01.261Z,6.20
2018-12-08T05:06:04.490Z,6.10
2018-12-08T05:08:07.714Z,6.10
2018-12-08T05:10:14.374Z,6.10
2018-12-08T05:12:18.373Z,6.10
2018-12-08T05:14:21.867Z,6.20
2018-12-08T05:16:25.390Z,6.20
2018-12-08T05:18:29.222Z,6.20
2018-12-08T05:20:32.671Z,6.20
2018-12-08T05:22:36.034Z,6.20
2018-12-08T05:24:39.942Z,6.20
2018-12-08T05:26:43.152Z,6.20
2018-12-08T05:28:46.680Z,6.20
2018-12-08T05:30:50.162Z,6.20
2018-12-08T05:32:53.378Z,6.20
2018-12-08T05:34:57.145Z,6.20
2018-12-08T05:37:01.047Z,6.20
2018-12-08T05:39:06.901Z,6.20
2018-12-08T05:41:10.414Z,6.20
2018-12-08T05:43:13.921Z,6.20
2018-12-08T05:45:17.410Z,6.10
2018-12-08T05:47:20.600Z,6.10
2018-12-08T05:49:24.134Z,6.10
2018-12-08T05:51:27.658Z,6.10
2018-12-08T05:53:31.498Z,6.10
2018-12-08T05:55:35.273Z,6.20
2018-12-08T05:57:38.802Z,6.20
2018-12-08T05:59:42.493Z,6.20
2018-12-08T06:01:45.731Z,6.30
2018-12-08T06:03:49.430Z,6.30
2018-12-08T06:05:52.949Z,6.30
2018-12-08T06:07:56.467Z,6.40
2018-12-08T06:10:00.014Z,6.40
2018-12-08T06:12:04.220Z,6.50
2018-12-08T06:14:08.044Z,6.50
2018-12-08T06:16:11.638Z,6.50
2018-12-08T06:18:15.121Z,6.50
2018-12-08T06:20:19.026Z,6.50
2018-12-08T06:22:22.286Z,6.60
2018-12-08T06:24:25.778Z,6.60
2018-12-08T06:26:29.377Z,6.60
2018-12-08T06:28:35.901Z,6.50
2018-12-08T06:30:39.422Z,6.60
2018-12-08T06:32:42.897Z,6.50
2018-12-08T06:34:46.413Z,6.50
2018-12-08T06:36:49.613Z,6.50
2018-12-08T06:38:53.111Z,6.50
2018-12-08T06:40:56.990Z,6.50
2018-12-08T06:43:00.887Z,6.50
2018-12-08T06:45:05.274Z,6.50
2018-12-08T06:47:09.039Z,6.40
2018-12-08T06:49:12.574Z,6.40
2018-12-08T06:51:15.856Z,6.40
2018-12-08T06:53:19.398Z,6.40
2018-12-08T06:55:23.326Z,6.40
2018-12-08T06:57:27.218Z,6.40
2018-12-08T06:59:30.706Z,6.50
2018-12-08T07:01:33.888Z,6.50
2018-12-08T07:03:37.123Z,6.60
2018-12-08T07:05:40.840Z,6.60
2018-12-08T07:07:44.550Z,6.60
2018-12-08T07:09:48.058Z,6.70
2018-12-08T07:11:51.717Z,6.70
2018-12-08T07:13:55.249Z,6.70
2018-12-08T07:16:00.807Z,6.70
2018-12-08T07:18:04.742Z,6.70
2018-12-08T07:20:09.052Z,6.70
2018-12-08T07:22:12.858Z,6.70
2018-12-08T07:24:16.975Z,6.70
2018-12-08T07:26:20.546Z,6.60
2018-12-08T07:28:24.139Z,6.60
2018-12-08T07:30:27.350Z,6.70
2018-12-08T07:32:30.583Z,6.70
2018-12-08T07:34:34.115Z,6.70
2018-12-08T07:36:37.994Z,6.70
2018-12-08T07:38:41.539Z,6.70
2018-12-08T07:40:44.749Z,6.80
2018-12-08T07:42:48.510Z,6.80
2018-12-08T07:44:51.722Z,6.80
2018-12-08T07:46:55.982Z,6.80
2018-12-08T07:48:59.834Z,6.90
2018-12-08T07:51:04.049Z,6.90
2018-12-08T07:53:08.039Z,6.90
2018-12-08T07:55:11.950Z,6.90
2018-12-08T07:57:15.167Z,6.90
2018-12-08T07:59:18.454Z,6.90
2018-12-08T08:01:22.326Z,6.90
2018-12-08T08:03:25.536Z,6.90
2018-12-08T08:05:29.014Z,6.80
2018-12-08T08:07:32.273Z,6.80
2018-12-08T08:09:35.929Z,6.70
2018-12-08T08:11:39.582Z,6.70
2018-12-08T08:13:43.305Z,6.60
2018-12-08T08:15:46.786Z,6.60
2018-12-08T08:17:50.034Z,6.60
2018-12-08T08:19:53.304Z,6.60
2018-12-08T08:21:56.946Z,6.60
2018-12-08T08:24:00.214Z,6.50
2018-12-08T08:26:03.667Z,6.50
2018-12-08T08:28:07.245Z,6.40
2018-12-08T08:30:12.316Z,6.40
2018-12-08T08:32:15.519Z,6.50
2018-12-08T08:34:18.746Z,6.50
2018-12-08T08:36:21.982Z,6.50
2018-12-08T08:38:25.190Z,6.60
2018-12-08T08:40:28.406Z,6.60
2018-12-08T08:42:31.607Z,6.60
2018-12-08T08:44:35.222Z,6.70
2018-12-08T08:46:38.554Z,6.70
2018-12-08T08:48:41.878Z,6.80
2018-12-08T08:50:45.542Z,6.80
2018-12-08T08:52:48.773Z,6.90
2018-12-08T08:54:52.806Z,6.90
2018-12-08T08:56:56.315Z,7.00
2018-12-08T08:58:59.575Z,7.00
2018-12-08T09:01:03.411Z,7.10
2018-12-08T09:03:07.490Z,7.10
2018-12-08T09:05:10.705Z,7.10
2018-12-08T09:07:13.931Z,7.20
2018-12-08T09:09:17.446Z,7.20
2018-12-08T09:11:20.955Z,7.20
2018-12-08T09:13:24.655Z,7.20
2018-12-08T09:15:28.199Z,7.20
2018-12-08T09:17:31.810Z,7.20
2018-12-08T09:19:35.439Z,7.20
2018-12-08T09:21:38.934Z,7.20
2018-12-08T09:23:42.222Z,7.20
2018-12-08T09:25:45.433Z,7.20
2018-12-08T09:27:49.397Z,7.20
2018-12-08T09:29:52.780Z,7.20
2018-12-08T09:31:56.347Z,7.20
2018-12-08T09:33:59.620Z,7.20
2018-12-08T09:36:02.882Z,7.20
2018-12-08T09:38:06.151Z,7.30
2018-12-08T09:40:09.416Z,7.30
2018-12-08T09:42:13.318Z,7.30
2018-12-08T09:44:16.557Z,7.30
2018-12-08T09:46:19.789Z,7.30
2018-12-08T09:48:23.017Z,7.40
2018-12-08T09:50:26.229Z,7.40
2018-12-08T09:52:29.888Z,7.40
2018-12-08T09:54:33.045Z,7.40
2018-12-08T09:56:36.690Z,7.40
2018-12-08T09:58:39.907Z,7.40
2018-12-08T10:00:43.966Z,7.40
2018-12-08T10:02:47.244Z,7.40
2018-12-08T10:04:51.215Z,7.40
2018-12-08T10:06:54.613Z,7.30
2018-12-08T10:08:57.970Z,7.30
2018-12-08T10:11:01.434Z,7.20
2018-12-08T10:13:04.635Z,7.20
2018-12-08T10:15:08.690Z,7.20
2018-12-08T10:17:12.350Z,7.20
2018-12-08T10:19:15.540Z,7.20
2018-12-08T10:21:19.174Z,7.20
2018-12-08T10:23:22.485Z,7.20
2018-12-08T10:25:26.034Z,7.20
2018-12-08T10:27:29.562Z,7.20
2018-12-08T10:29:32.878Z,7.20
2018-12-08T10:31:36.638Z,7.20
2018-12-08T10:33:40.278Z,7.20
2018-12-08T10:35:43.486Z,7.20
2018-12-08T10:37:46.942Z,7.20
2018-12-08T10:39:50.172Z,7.20
2018-12-08T10:41:53.458Z,7.20
2018-12-08T10:43:57.148Z,7.30
2018-12-08T10:46:00.745Z,7.30
2018-12-08T10:48:04.862Z,7.30
2018-12-08T10:50:10.959Z,7.30
2018-12-08T10:52:14.601Z,7.40
2018-12-08T10:54:17.902Z,7.40
2018-12-08T10:56:21.126Z,7.40
2018-12-08T10:58:24.310Z,7.50
2018-12-08T11:00:32.890Z,7.50
2018-12-08T11:02:40.760Z,7.40
2018-12-08T11:04:44.238Z,7.40
2018-12-08T11:06:47.420Z,7.40
2018-12-08T11:08:51.318Z,7.40
2018-12-08T11:10:54.511Z,7.40
2018-12-08T11:12:57.748Z,7.40
2018-12-08T11:15:01.384Z,7.40
2018-12-08T11:17:04.855Z,7.40
2018-12-08T11:19:08.066Z,7.40
2018-12-08T11:21:11.351Z,7.30
2018-12-08T11:23:14.834Z,7.30
2018-12-08T11:25:18.103Z,7.20
2018-12-08T11:27:21.645Z,7.20
2018-12-08T11:29:25.566Z,7.20
2018-12-08T11:31:29.262Z,7.10
2018-12-08T11:33:32.847Z,7.20
2018-12-08T11:35:36.312Z,7.20
2018-12-08T11:37:39.527Z,7.20
2018-12-08T11:39:42.827Z,7.20
2018-12-08T11:41:46.626Z,7.20
2018-12-08T11:43:49.926Z,7.20
2018-12-08T11:45:53.420Z,7.20
2018-12-08T11:47:56.702Z,7.20
2018-12-08T11:50:00.042Z,7.30
2018-12-08T11:52:03.706Z,7.30
2018-12-08T11:54:06.933Z,7.30
2018-12-08T11:56:10.164Z,7.30
2018-12-08T11:58:13.408Z,7.20
2018-12-08T12:00:17.338Z,7.20
2018-12-08T12:02:20.966Z,7.20
2018-12-08T12:04:24.473Z,7.20
2018-12-08T12:06:28.259Z,7.20
2018-12-08T12:08:32.168Z,7.20
2018-12-08T12:10:35.997Z,7.20
2018-12-08T12:12:39.860Z,7.20
2018-12-08T12:14:47.415Z,7.20
2018-12-08T12:16:50.963Z,7.30
2018-12-08T12:18:54.930Z,7.20
2018-12-08T12:20:58.527Z,7.20
2018-12-08T12:23:01.978Z,7.20
2018-12-08T12:25:07.200Z,7.10
2018-12-08T12:27:10.478Z,7.20
2018-12-08T12:29:13.728Z,7.20
2018-12-08T12:31:16.951Z,7.10
2018-12-08T12:33:20.168Z,7.10
2018-12-08T12:35:23.944Z,7.10
2018-12-08T12:37:27.147Z,7.10
2018-12-08T12:39:30.522Z,7.20
2018-12-08T12:41:34.448Z,7.20
2018-12-08T12:43:38.020Z,7.30
2018-12-08T12:45:42.033Z,7.30
2018-12-08T12:47:45.291Z,7.40
2018-12-08T12:49:49.770Z,7.50
2018-12-08T12:51:53.022Z,7.60
2018-12-08T12:53:56.351Z,7.60
2018-12-08T12:55:59.594Z,7.70
2018-12-08T12:58:02.810Z,7.80
2018-12-08T13:00:10.226Z,7.80
2018-12-08T13:02:13.866Z,7.90
2018-12-08T13:04:17.054Z,7.80
2018-12-08T13:06:20.271Z,7.90
2018-12-08T13:08:23.527Z,7.80
2018-12-08T13:10:26.750Z,7.80
2018-12-08T13:12:30.406Z,7.80
2018-12-08T13:14:36.217Z,7.90
2018-12-08T13:16:39.537Z,7.90
2018-12-08T13:18:42.839Z,7.90
2018-12-08T13:20:46.145Z,7.90
2018-12-08T13:22:49.365Z,7.90
2018-12-08T13:24:52.570Z,8.00
2018-12-08T13:26:55.830Z,8.00
2018-12-08T13:28:59.046Z,8.10
2018-12-08T13:31:02.234Z,8.20
2018-12-08T13:33:05.918Z,8.20
2018-12-08T13:35:15.599Z,8.20
2018-12-08T13:37:19.234Z,8.30
2018-12-08T13:39:23.346Z,8.40
2018-12-08T13:41:26.673Z,8.60
2018-12-08T13:43:29.966Z,8.60
2018-12-08T13:45:33.223Z,8.60
2018-12-08T13:47:36.511Z,8.60
2018-12-08T13:49:39.732Z,8.50
2018-12-08T13:51:43.503Z,8.50
2018-12-08T13:53:47.468Z,8.50
2018-12-08T13:55:50.947Z,8.40
2018-12-08T13:57:54.559Z,8.40
2018-12-08T13:59:58.310Z,8.40
2018-12-08T14:02:01.498Z,8.40
2018-12-08T14:04:04.694Z,8.50
2018-12-08T14:06:08.826Z,8.50
2018-12-08T14:08:12.028Z,8.50
2018-12-08T14:10:15.632Z,8.50
2018-12-08T14:12:19.376Z,8.40
2018-12-08T14:14:22.595Z,8.40
2018-12-08T14:16:25.799Z,8.40
2018-12-08T14:18:29.552Z,8.40
2018-12-08T14:20:33.994Z,8.40
2018-12-08T14:22:37.191Z,8.30
2018-12-08T14:24:40.750Z,8.30
2018-12-08T14:26:44.002Z,8.40
2018-12-08T14:28:47.595Z,8.50
2018-12-08T14:30:50.894Z,8.50
2018-12-08T14:32:54.154Z,8.50
2018-12-08T14:34:57.574Z,8.50
2018-12-08T14:37:01.101Z,8.50
2018-12-08T14:39:06.282Z,8.40
2018-12-08T14:41:09.487Z,8.30
2018-12-08T14:43:12.696Z,8.20
2018-12-08T14:45:16.887Z,8.20
2018-12-08T14:47:20.488Z,8.20
2018-12-08T14:49:24.659Z,8.30
2018-12-08T14:51:28.307Z,8.20
2018-12-08T14:53:31.587Z,8.30
2018-12-08T14:55:35.417Z,8.40
2018-12-08T14:57:39.702Z,8.40
2018-12-08T14:59:45.168Z,8.40
2018-12-08T15:01:49.581Z,8.30
2018-12-08T15:03:53.618Z,8.30
2018-12-08T15:05:56.914Z,8.20
2018-12-08T15:08:00.559Z,8.10
2018-12-08T15:10:05.656Z,8.20
2018-12-08T15:12:09.206Z,8.20
2018-12-08T15:14:12.515Z,8.30
2018-12-08T15:16:15.770Z,8.40
2018-12-08T15:18:19.054Z,8.40
2018-12-08T15:20:22.710Z,8.40
2018-12-08T15:22:25.984Z,8.30
2018-12-08T15:24:29.195Z,8.40
2018-12-08T15:26:33.254Z,8.40
2018-12-08T15:28:36.662Z,8.40
2018-12-08T15:30:40.740Z,8.40
2018-12-08T15:32:44.029Z,8.40
2018-12-08T15:34:47.253Z,8.40
2018-12-08T15:36:50.982Z,8.40
2018-12-08T15:38:54.611Z,8.40
2018-12-08T15:40:58.007Z,8.40
2018-12-08T15:43:01.167Z,8.40
2018-12-08T15:45:05.942Z,8.40
2018-12-08T15:47:09.215Z,8.40
2018-12-08T15:49:12.878Z,8.40
2018-12-08T15:51:16.473Z,8.40
2018-12-08T15:53:20.182Z,8.50
2018-12-08T15:55:24.302Z,8.50
2018-12-08T15:57:27.572Z,8.50
2018-12-08T15:59:31.785Z,8.50
2018-12-08T16:01:35.040Z,8.50
2018-12-08T16:03:38.525Z,8.50
2018-12-08T16:05:41.766Z,8.50
2018-12-08T16:07:45.334Z,8.60
2018-12-08T16:09:48.566Z,8.60
2018-12-08T16:11:51.874Z,8.60
2018-12-08T16:13:55.118Z,8.60
2018-12-08T16:15:58.306Z,8.70
2018-12-08T16:18:01.849Z,8.60
2018-12-08T16:20:09.974Z,8.60
2018-12-08T16:22:13.725Z,8.60
2018-12-08T16:24:17.145Z,8.60
2018-12-08T16:26:20.359Z,8.60
2018-12-08T16:28:23.566Z,8.50
2018-12-08T16:30:26.788Z,8.40
2018-12-08T16:32:30.437Z,8.30
2018-12-08T16:34:33.947Z,8.30
2018-12-08T16:36:38.015Z,8.30
2018-12-08T16:38:41.214Z,8.40
2018-12-08T16:40:45.130Z,8.30
2018-12-08T16:42:49.225Z,8.40
2018-12-08T16:44:52.476Z,8.40
2018-12-08T16:46:55.897Z,8.40
2018-12-08T16:48:59.306Z,8.40
2018-12-08T16:51:02.554Z,8.40
2018-12-08T16:53:05.769Z,8.40
2018-12-08T16:55:09.282Z,8.30
2018-12-08T16:57:12.929Z,8.40
2018-12-08T16:59:16.582Z,8.40
2018-12-08T17:01:20.263Z,8.40
2018-12-08T17:03:23.470Z,8.40
2018-12-08T17:05:27.097Z,8.30
2018-12-08T17:07:30.761Z,8.40
2018-12-08T17:09:34.390Z,8.30
2018-12-08T17:11:38.044Z,8.40
2018-12-08T17:13:41.270Z,8.40
2018-12-08T17:15:44.523Z,8.30
2018-12-08T17:17:47.723Z,8.30
2018-12-08T17:19:51.345Z,8.30
2018-12-08T17:21:54.550Z,8.20
2018-12-08T17:23:57.804Z,8.20
2018-12-08T17:26:01.474Z,8.20
2018-12-08T17:28:04.720Z,8.20
2018-12-08T17:30:08.943Z,8.10
2018-12-08T17:32:12.487Z,8.20
2018-12-08T17:34:15.995Z,8.10
2018-12-08T17:36:19.601Z,8.10
2018-12-08T17:38:23.222Z,8.10
2018-12-08T17:40:27.292Z,8.10
2018-12-08T17:42:30.519Z,8.10
2018-12-08T17:44:33.767Z,8.10
2018-12-08T17:46:37.050Z,8.10
2018-12-08T17:48:40.246Z,8.10
2018-12-08T17:50:43.928Z,8.20
2018-12-08T17:52:47.213Z,8.20
2018-12-08T17:54:50.979Z,8.20
2018-12-08T17:56:54.587Z,8.10
2018-12-08T17:58:58.566Z,8.20
2018-12-08T18:01:02.067Z,8.20
2018-12-08T18:03:06.137Z,8.10
2018-12-08T18:05:10.097Z,8.10
2018-12-08T18:07:13.650Z,8.10
2018-12-08T18:09:16.882Z,8.10
2018-12-08T18:11:20.096Z,8.10
2018-12-08T18:13:23.322Z,8.10
2018-12-08T18:15:27.085Z,8.10
2018-12-08T18:17:30.251Z,8.10
2018-12-08T18:19:33.900Z,8.10
2018-12-08T18:21:37.996Z,8.10
2018-12-08T18:23:41.435Z,8.10
2018-12-08T18:25:45.038Z,8.10
2018-12-08T18:27:48.532Z,8.10
2018-12-08T18:29:51.706Z,8.00
2018-12-08T18:31:54.928Z,8.00
2018-12-08T18:33:58.166Z,8.00
2018-12-08T18:36:01.826Z,7.90
2018-12-08T18:38:05.414Z,7.90
2018-12-08T18:40:09.369Z,7.90
2018-12-08T18:42:13.034Z,7.90
2018-12-08T18:44:16.221Z,7.90
2018-12-08T18:46:19.403Z,7.90
2018-12-08T18:48:22.943Z,7.90
2018-12-08T18:50:26.601Z,7.90
2018-12-08T18:52:30.302Z,7.90
2018-12-08T18:54:33.571Z,7.90
2018-12-08T18:56:37.170Z,7.90
2018-12-08T18:58:42.049Z,7.90
2018-12-08T19:00:46.004Z,7.90
2018-12-08T19:02:49.237Z,7.90
2018-12-08T19:04:52.754Z,7.90
2018-12-08T19:06:55.987Z,8.00
2018-12-08T19:08:59.589Z,7.90
2018-12-08T19:11:02.812Z,7.90
2018-12-08T19:13:06.282Z,7.90
2018-12-08T19:15:10.368Z,7.90
2018-12-08T19:17:13.557Z,8.00
2018-12-08T19:19:17.096Z,8.00
2018-12-08T19:21:20.718Z,7.90
2018-12-08T19:23:23.926Z,7.90
2018-12-08T19:25:27.298Z,7.90
2018-12-08T19:27:30.564Z,7.90
2018-12-08T19:29:33.790Z,7.90
2018-12-08T19:31:37.723Z,7.90
2018-12-08T19:33:41.072Z,7.90
2018-12-08T19:35:47.222Z,7.90
2018-12-08T19:37:50.790Z,7.90
2018-12-08T19:39:54.488Z,7.90
2018-12-08T19:41:58.233Z,7.90
2018-12-08T19:44:01.504Z,7.80
2018-12-08T19:46:05.894Z,7.80
2018-12-08T19:48:09.423Z,7.90
2018-12-08T19:50:13.975Z,7.90
2018-12-08T19:52:17.420Z,7.90
2018-12-08T19:54:21.018Z,7.90
2018-12-08T19:56:25.407Z,7.90
2018-12-08T19:58:29.070Z,7.90
2018-12-08T20:00:33.810Z,8.00
2018-12-08T20:02:37.454Z,7.90
2018-12-08T20:04:41.306Z,7.90
2018-12-08T20:06:45.132Z,7.90
2018-12-08T20:08:48.839Z,7.90
2018-12-08T20:10:52.553Z,7.90
2018-12-08T20:12:56.092Z,7.90
2018-12-08T20:14:59.357Z,7.90
2018-12-08T20:17:02.784Z,7.90
2018-12-08T20:19:06.454Z,7.90
2018-12-08T20:21:10.008Z,7.80
2018-12-08T20:23:14.966Z,7.80
2018-12-08T20:25:18.613Z,7.80
2018-12-08T20:27:21.830Z,7.80
2018-12-08T20:29:27.295Z,7.80
2018-12-08T20:31:30.889Z,7.80
2018-12-08T20:33:34.136Z,7.80
2018-12-08T20:35:37.988Z,7.80
2018-12-08T20:37:41.390Z,7.80
2018-12-08T20:39:46.591Z,7.80
2018-12-08T20:41:50.935Z,7.90
2018-12-08T20:43:54.532Z,7.90
2018-12-08T20:45:57.762Z,7.90
2018-12-08T20:48:01.093Z,7.90
2018-12-08T20:50:05.832Z,7.90
2018-12-08T20:52:09.055Z,8.00
2018-12-08T20:54:12.281Z,8.00
2018-12-08T20:56:15.466Z,8.00
2018-12-08T20:58:18.738Z,8.00
2018-12-08T21:00:22.041Z,8.00
2018-12-08T21:02:26.396Z,8.00
2018-12-08T21:04:29.585Z,8.00
2018-12-08T21:06:32.920Z,8.00
2018-12-08T21:08:36.119Z,8.00
2018-12-08T21:10:39.893Z,8.10
2018-12-08T21:12:43.150Z,8.10
2018-12-08T21:14:46.464Z,8.20
2018-12-08T21:16:50.207Z,8.20
2018-12-08T21:18:54.882Z,8.20
2018-12-08T21:20:58.158Z,8.30
2018-12-08T21:23:01.425Z,8.30
2018-12-08T21:25:05.054Z,8.30
2018-12-08T21:27:08.627Z,8.30
2018-12-08T21:29:12.070Z,8.30
2018-12-08T21:31:15.360Z,8.30
2018-12-08T21:33:18.986Z,8.30
2018-12-08T21:35:23.112Z,8.20
2018-12-08T21:37:26.346Z,8.00
2018-12-08T21:39:29.599Z,7.80
2018-12-08T21:41:33.246Z,7.70
2018-12-08T21:43:36.943Z,7.50
2018-12-08T21:45:40.835Z,7.40
2018-12-08T21:47:44.050Z,7.40
2018-12-08T21:49:47.253Z,7.40
2018-12-08T21:51:51.198Z,7.30
2018-12-08T21:53:54.513Z,7.20
2018-12-08T21:55:59.880Z,7.00
2018-12-08T21:58:03.599Z,6.90
2018-12-08T22:00:08.246Z,6.80
2018-12-08T22:02:12.198Z,6.70
2018-12-08T22:04:15.434Z,6.70
2018-12-08T22:06:18.926Z,6.60
2018-12-08T22:08:22.174Z,6.70
2018-12-08T22:10:25.796Z,6.70
2018-12-08T22:12:28.986Z,6.70
2018-12-08T22:14:34.221Z,6.60
2018-12-08T22:16:37.612Z,6.70
2018-12-08T22:18:41.473Z,6.70
2018-12-08T22:20:45.847Z,6.60
2018-12-08T22:23:17.274Z,6.70
2018-12-08T22:25:21.303Z,6.70
2018-12-08T22:27:24.501Z,6.70
2018-12-08T22:29:28.054Z,6.70
2018-12-08T22:31:31.325Z,6.70
2018-12-08T22:33:34.557Z,6.70
2018-12-08T22:35:38.450Z,6.70
2018-12-08T22:37:41.690Z,6.70
2018-12-08T22:39:44.900Z,6.80
2018-12-08T22:41:48.313Z,6.80
2018-12-08T22:43:52.204Z,6.70
2018-12-08T22:45:56.555Z,6.80
2018-12-08T22:47:59.928Z,6.70
2018-12-08T22:50:03.650Z,6.70
2018-12-08T22:52:06.846Z,6.70
2018-12-08T22:54:10.072Z,6.70
2018-12-08T22:56:14.038Z,6.80
2018-12-08T22:58:17.230Z,6.80
2018-12-08T23:00:34.541Z,6.80
2018-12-08T23:02:37.737Z,6.80
2018-12-08T23:04:41.340Z,6.70
2018-12-08T23:07:07.294Z,6.80
2018-12-08T23:09:10.562Z,6.80
2018-12-08T23:11:14.402Z,6.80
2018-12-08T23:13:17.812Z,6.70
2018-12-08T23:15:21.142Z,6.70
2018-12-08T23:17:24.749Z,6.80
2018-12-08T23:19:28.183Z,6.80
2018-12-08T23:21:31.446Z,6.80
2018-12-08T23:23:34.646Z,6.80
2018-12-08T23:25:38.976Z,6.90
2018-12-08T23:27:42.598Z,6.90
2018-12-08T23:29:45.819Z,6.90
2018-12-08T23:31:49.485Z,7.00
2018-12-08T23:33:53.438Z,7.00
2018-12-08T23:35:56.646Z,6.90
2018-12-08T23:37:59.860Z,7.00
2018-12-08T23:40:04.229Z,7.00
2018-12-08T23:42:08.446Z,7.00
2018-12-08T23:44:11.751Z,7.00
2018-12-08T23:46:14.958Z,7.10
2018-12-08T23:48:18.700Z,7.10
2018-12-08T23:50:22.324Z,7.10
2018-12-08T23:52:25.522Z,7.20
2018-12-08T23:54:28.755Z,7.30
2018-12-08T23:56:32.438Z,7.30
2018-12-08T23:58:35.634Z,7.40
